createdAt,value
2023-02-02T00:04:16.580Z,86.11
2023-02-02T00:08:14.545Z,86.11
2023-02-02T00:12:13.551Z,86.06
2023-02-02T00:16:11.515Z,86.01
2023-02-02T00:20:09.657Z,86.03
2023-02-02T00:24:08.549Z,86.04
2023-02-02T00:28:06.528Z,86.05
2023-02-02T00:32:04.469Z,86.06
2023-02-02T00:36:02.829Z,86.22
2023-02-02T00:40:00.475Z,86.38
2023-02-02T00:44:18.516Z,86.44
2023-02-02T00:48:17.455Z,86.61
2023-02-02T00:52:15.487Z,86.55
2023-02-02T00:56:13.472Z,86.61
2023-02-02T01:00:11.549Z,86.72
2023-02-02T01:04:09.477Z,86.79
2023-02-02T01:08:07.450Z,86.76
2023-02-02T01:12:05.435Z,86.87
2023-02-02T01:16:03.532Z,86.83
2023-02-02T01:20:01.443Z,86.82
2023-02-02T01:23:59.735Z,86.83
2023-02-02T01:27:57.406Z,86.92
2023-02-02T01:31:55.510Z,86.98
2023-02-02T01:36:03.429Z,86.99
2023-02-02T01:40:01.409Z,87.00
2023-02-02T01:44:00.424Z,86.98
2023-02-02T01:48:04.496Z,87.01
2023-02-02T01:52:09.375Z,86.86
2023-02-02T01:56:07.418Z,87.15
2023-02-02T02:00:08.375Z,87.29
2023-02-02T02:04:06.443Z,87.42
2023-02-02T02:08:06.315Z,87.56
2023-02-02T02:12:04.367Z,87.61
2023-02-02T02:16:29.434Z,87.59
2023-02-02T02:21:30.414Z,87.63
2023-02-02T02:26:03.338Z,87.57
2023-02-02T02:30:20.442Z,87.50
2023-02-02T02:34:26.351Z,87.47
2023-02-02T02:38:59.370Z,87.40
2023-02-02T02:43:04.312Z,87.30
2023-02-02T02:47:04.313Z,87.20
2023-02-02T02:51:04.289Z,87.05
2023-02-02T02:55:08.333Z,86.77
2023-02-02T02:59:32.275Z,86.67
2023-02-02T03:03:39.308Z,86.54
2023-02-02T03:07:43.317Z,86.58
2023-02-02T03:11:42.303Z,86.65
2023-02-02T03:15:40.384Z,86.64
2023-02-02T03:19:38.387Z,86.63
2023-02-02T03:23:36.249Z,86.68
2023-02-02T03:27:34.351Z,86.71
2023-02-02T03:31:33.285Z,86.73
2023-02-02T03:35:32.316Z,86.74
2023-02-02T03:39:30.247Z,86.84
2023-02-02T03:43:28.268Z,86.98
2023-02-02T03:47:26.216Z,86.95
2023-02-02T03:51:29.264Z,86.97
2023-02-02T03:55:27.219Z,86.92
2023-02-02T03:59:26.266Z,86.83
2023-02-02T04:03:26.293Z,86.73
2023-02-02T04:07:25.203Z,86.73
2023-02-02T04:11:26.263Z,86.71
2023-02-02T04:15:25.571Z,86.65
2023-02-02T04:19:23.191Z,86.60
2023-02-02T04:23:21.298Z,86.54
2023-02-02T04:27:19.148Z,86.57
2023-02-02T04:31:17.241Z,86.63
2023-02-02T04:35:15.172Z,86.78
2023-02-02T04:39:13.238Z,86.84
2023-02-02T04:43:12.216Z,87.07
2023-02-02T04:47:10.196Z,87.16
2023-02-02T04:51:14.158Z,87.21
2023-02-02T04:55:13.186Z,87.22
2023-02-02T04:59:11.135Z,87.15
2023-02-02T05:03:09.115Z,87.11
2023-02-02T05:07:08.121Z,87.07
2023-02-02T05:11:07.193Z,87.05
2023-02-02T05:15:07.158Z,87.02
2023-02-02T05:19:11.231Z,87.11
2023-02-02T05:23:10.137Z,87.28
2023-02-02T05:27:08.140Z,87.44
2023-02-02T05:31:06.123Z,87.54
2023-02-02T05:35:04.088Z,87.59
2023-02-02T05:39:02.052Z,87.58
2023-02-02T05:43:03.112Z,87.52
2023-02-02T05:47:01.066Z,87.47
2023-02-02T05:51:20.157Z,87.34
2023-02-02T05:55:18.040Z,87.20
2023-02-02T05:59:16.135Z,87.14
2023-02-02T06:03:16.242Z,87.08
2023-02-02T06:07:14.111Z,87.03
2023-02-02T06:11:12.013Z,86.88
2023-02-02T06:15:10.096Z,86.65
2023-02-02T06:19:08.069Z,86.54
2023-02-02T06:23:06.057Z,86.46
2023-02-02T06:27:04.035Z,86.26
2023-02-02T06:31:02.130Z,86.12
2023-02-02T06:34:59.985Z,85.96
2023-02-02T06:38:58.002Z,85.85
2023-02-02T06:42:56.020Z,85.72
2023-02-02T06:46:54.018Z,85.67
2023-02-02T06:50:52.969Z,85.52
2023-02-02T06:54:50.983Z,85.53
2023-02-02T06:58:50.086Z,85.24
2023-02-02T07:02:27.634Z,84.99
2023-02-02T07:05:52.092Z,84.95
2023-02-02T07:09:15.947Z,84.69
2023-02-02T07:12:40.932Z,84.53
2023-02-02T07:16:09.564Z,84.51
2023-02-02T07:19:36.101Z,84.36
2023-02-02T07:23:00.117Z,84.21
2023-02-02T07:26:23.954Z,84.18
2023-02-02T07:29:49.179Z,84.05
2023-02-02T07:33:13.205Z,83.67
2023-02-02T07:36:37.117Z,83.14
2023-02-02T07:40:01.016Z,82.92
2023-02-02T07:43:25.005Z,82.88
2023-02-02T07:46:49.308Z,82.35
2023-02-02T07:50:13.337Z,81.85
2023-02-02T07:53:37.553Z,81.62
2023-02-02T07:57:02.327Z,81.01
2023-02-02T08:00:27.551Z,80.63
2023-02-02T08:03:51.728Z,80.49
2023-02-02T08:07:15.623Z,80.56
2023-02-02T08:10:39.612Z,80.59
2023-02-02T08:14:05.306Z,80.31
2023-02-02T08:17:29.426Z,80.38
2023-02-02T08:20:53.694Z,80.28
2023-02-02T08:24:21.077Z,80.59
2023-02-02T08:27:44.956Z,80.32
2023-02-02T08:31:12.878Z,80.09
2023-02-02T08:34:37.213Z,79.33
2023-02-02T08:38:03.260Z,78.62
2023-02-02T08:41:27.070Z,78.28
2023-02-02T08:46:12.664Z,78.22
2023-02-02T08:48:38.801Z,78.73
2023-02-02T08:52:03.072Z,78.01
2023-02-02T08:55:27.137Z,78.14
2023-02-02T08:58:59.754Z,77.82
2023-02-02T09:02:23.727Z,77.85
2023-02-02T09:05:47.783Z,77.99
2023-02-02T09:09:14.815Z,78.57
2023-02-02T09:12:38.865Z,79.04
2023-02-02T09:16:04.601Z,79.19
2023-02-02T09:19:29.534Z,79.55
2023-02-02T09:22:57.165Z,79.62
2023-02-02T09:26:24.334Z,79.82
2023-02-02T09:29:48.937Z,80.24
2023-02-02T09:33:12.832Z,80.59
2023-02-02T09:36:38.242Z,80.67
2023-02-02T09:40:03.234Z,80.93
2023-02-02T09:43:53.496Z,80.91
2023-02-02T09:47:48.549Z,80.84
2023-02-02T09:51:20.110Z,80.84
2023-02-02T09:54:48.030Z,81.05
2023-02-02T09:58:36.160Z,81.27
2023-02-02T10:02:14.091Z,81.49
2023-02-02T10:05:51.560Z,81.40
2023-02-02T10:09:43.999Z,81.35
2023-02-02T10:13:17.194Z,81.36
2023-02-02T10:16:42.319Z,81.63
2023-02-02T10:20:44.949Z,81.70
2023-02-02T10:24:25.771Z,81.53
2023-02-02T10:28:19.988Z,81.67
2023-02-02T10:32:12.007Z,81.60
2023-02-02T10:35:47.571Z,81.47
2023-02-02T10:39:27.234Z,81.14
2023-02-02T10:43:17.699Z,80.88
2023-02-02T10:46:46.800Z,81.02
2023-02-02T10:50:13.524Z,81.15
2023-02-02T10:53:38.096Z,81.02
2023-02-02T10:57:04.061Z,81.04
2023-02-02T11:00:46.798Z,81.08
2023-02-02T11:04:29.768Z,81.02
2023-02-02T11:07:55.753Z,81.07
2023-02-02T11:11:30.791Z,81.13
2023-02-02T11:15:05.429Z,81.13
2023-02-02T11:18:31.838Z,81.00
2023-02-02T11:21:57.998Z,80.93
2023-02-02T11:25:32.332Z,80.47
2023-02-02T11:28:59.977Z,80.54
2023-02-02T11:32:27.665Z,80.32
2023-02-02T11:36:22.159Z,80.32
2023-02-02T11:39:46.063Z,79.96
2023-02-02T11:43:30.344Z,79.83
2023-02-02T11:46:56.945Z,79.94
2023-02-02T11:50:25.598Z,80.18
2023-02-02T11:53:51.087Z,79.85
2023-02-02T11:57:20.074Z,79.53
2023-02-02T12:00:49.046Z,79.62
2023-02-02T12:04:19.185Z,79.83
2023-02-02T12:07:45.340Z,80.19
2023-02-02T12:11:25.773Z,80.09
2023-02-02T12:15:12.927Z,79.92
2023-02-02T12:19:01.986Z,79.63
2023-02-02T12:22:41.408Z,79.48
2023-02-02T12:26:28.669Z,79.53
2023-02-02T12:30:16.979Z,79.66
2023-02-02T12:33:53.151Z,79.80
2023-02-02T12:37:32.183Z,79.51
2023-02-02T12:41:04.235Z,79.33
2023-02-02T12:44:43.748Z,79.50
2023-02-02T12:48:19.637Z,79.67
2023-02-02T12:52:02.897Z,79.78
2023-02-02T12:55:41.520Z,79.88
2023-02-02T12:59:41.456Z,79.64
2023-02-02T13:03:27.316Z,79.66
2023-02-02T13:07:06.171Z,79.83
2023-02-02T13:10:53.433Z,79.90
2023-02-02T13:14:29.814Z,79.92
2023-02-02T13:18:00.613Z,80.21
2023-02-02T13:21:29.111Z,80.41
2023-02-02T13:24:56.841Z,80.54
2023-02-02T13:28:55.307Z,80.63
2023-02-02T13:32:41.377Z,80.93
2023-02-02T13:36:14.879Z,81.47
2023-02-02T13:39:49.049Z,81.97
2023-02-02T13:43:20.648Z,82.00
2023-02-02T13:46:57.618Z,82.46
2023-02-02T13:50:30.200Z,82.72
2023-02-02T13:54:28.642Z,82.87
2023-02-02T13:58:13.480Z,82.90
2023-02-02T14:01:39.431Z,82.84
2023-02-02T14:05:08.030Z,83.11
2023-02-02T14:08:33.360Z,83.35
2023-02-02T14:12:04.251Z,83.53
2023-02-02T14:15:44.791Z,83.70
2023-02-02T14:19:36.943Z,83.72
2023-02-02T14:23:01.049Z,83.99
2023-02-02T14:26:47.842Z,84.13
2023-02-02T14:30:36.492Z,84.31
2023-02-02T14:34:49.375Z,84.55
2023-02-02T14:39:19.476Z,84.47
2023-02-02T14:43:56.372Z,84.51
2023-02-02T14:48:00.672Z,84.66
2023-02-02T14:52:03.491Z,85.01
2023-02-02T14:56:12.603Z,85.37
2023-02-02T15:00:11.428Z,85.50
2023-02-02T15:04:11.511Z,85.80
2023-02-02T15:08:20.275Z,85.95
2023-02-02T15:12:18.325Z,85.84
2023-02-02T15:16:36.363Z,86.05
2023-02-02T15:20:56.427Z,86.40
2023-02-02T15:25:02.600Z,86.52
2023-02-02T15:29:20.849Z,86.41
2023-02-02T15:33:32.307Z,86.39
2023-02-02T15:37:35.283Z,86.73
2023-02-02T15:41:39.258Z,87.06
2023-02-02T15:46:05.339Z,87.06
2023-02-02T15:50:03.373Z,87.25
2023-02-02T15:54:04.260Z,87.24
2023-02-02T15:58:02.308Z,87.22
2023-02-02T16:02:05.436Z,87.37
2023-02-02T16:05:54.852Z,87.39
2023-02-02T16:09:34.127Z,87.54
2023-02-02T16:12:59.091Z,87.66
2023-02-02T16:16:47.668Z,87.65
2023-02-02T16:20:51.324Z,87.52
2023-02-02T16:24:53.228Z,87.50
2023-02-02T16:28:51.314Z,88.08
2023-02-02T16:32:51.301Z,88.53
2023-02-02T16:36:49.213Z,88.63
2023-02-02T16:40:47.229Z,88.65
2023-02-02T16:44:58.184Z,88.35
2023-02-02T16:49:12.304Z,87.85
2023-02-02T16:53:14.240Z,87.59
2023-02-02T16:57:15.302Z,87.47
2023-02-02T17:01:16.096Z,87.58
2023-02-02T17:05:49.238Z,87.33
2023-02-02T17:09:50.192Z,87.40
2023-02-02T17:13:48.321Z,87.20
2023-02-02T17:17:46.143Z,87.17
2023-02-02T17:21:44.257Z,86.98
2023-02-02T17:25:45.126Z,86.92
2023-02-02T17:29:43.152Z,87.05
2023-02-02T17:33:42.126Z,87.13
2023-02-02T17:37:40.564Z,87.05
2023-02-02T17:41:38.214Z,86.82
2023-02-02T17:45:45.320Z,86.89
2023-02-02T17:49:43.081Z,86.95
2023-02-02T17:53:41.115Z,86.94
2023-02-02T17:57:39.134Z,86.56
2023-02-02T18:01:39.239Z,85.32
2023-02-02T18:05:38.097Z,84.92
2023-02-02T18:09:41.089Z,84.54
2023-02-02T18:13:39.142Z,83.95
2023-02-02T18:17:37.158Z,83.33
2023-02-02T18:21:37.101Z,83.61
2023-02-02T18:25:35.164Z,83.84
2023-02-02T18:29:33.115Z,83.26
2023-02-02T18:33:31.088Z,83.13
2023-02-02T18:37:29.136Z,82.49
2023-02-02T18:41:31.103Z,82.34
2023-02-02T18:45:29.113Z,82.40
2023-02-02T18:49:27.096Z,82.74
2023-02-02T18:53:25.032Z,82.84
2023-02-02T18:57:23.151Z,82.98
2023-02-02T19:01:22.083Z,83.33
2023-02-02T19:05:37.026Z,83.28
2023-02-02T19:09:35.029Z,83.32
2023-02-02T19:13:34.068Z,83.16
2023-02-02T19:17:37.996Z,83.13
2023-02-02T19:21:35.989Z,83.16
2023-02-02T19:25:34.021Z,83.29
2023-02-02T19:29:38.006Z,83.68
2023-02-02T19:33:35.927Z,83.82
2023-02-02T19:37:41.972Z,84.06
2023-02-02T19:41:40.969Z,84.35
2023-02-02T19:45:44.434Z,84.49
2023-02-02T19:49:50.914Z,84.82
2023-02-02T19:53:53.101Z,85.00
2023-02-02T19:57:50.906Z,85.33
2023-02-02T20:01:52.934Z,85.59
2023-02-02T20:05:56.958Z,85.63
2023-02-02T20:09:54.943Z,85.31
2023-02-02T20:13:58.893Z,84.82
2023-02-02T20:17:57.998Z,84.75
2023-02-02T20:22:00.930Z,84.94
2023-02-02T20:25:58.933Z,85.09
2023-02-02T20:29:58.907Z,84.93
2023-02-02T20:34:01.913Z,84.97
2023-02-02T20:37:59.847Z,84.93
2023-02-02T20:41:58.856Z,84.92
2023-02-02T20:45:56.879Z,84.68
2023-02-02T20:49:54.929Z,84.62
2023-02-02T20:53:52.860Z,84.35
2023-02-02T20:57:53.051Z,84.30
2023-02-02T21:01:50.846Z,84.26
2023-02-02T21:05:48.840Z,84.37
2023-02-02T21:09:46.816Z,84.51
2023-02-02T21:13:44.803Z,84.56
2023-02-02T21:17:42.793Z,84.51
2023-02-02T21:21:40.827Z,84.25
2023-02-02T21:25:38.797Z,84.38
2023-02-02T21:29:37.913Z,84.37
2023-02-02T21:33:35.883Z,84.52
2023-02-02T21:37:33.780Z,84.76
2023-02-02T21:41:31.835Z,84.92
2023-02-02T21:45:36.221Z,84.86
2023-02-02T21:49:41.816Z,84.89
2023-02-02T21:53:40.787Z,84.44
2023-02-02T21:57:58.731Z,84.42
2023-02-02T22:01:56.746Z,84.57
2023-02-02T22:05:54.766Z,84.82
2023-02-02T22:09:58.762Z,84.96
2023-02-02T22:13:56.731Z,84.86
2023-02-02T22:17:55.725Z,84.44
2023-02-02T22:21:53.722Z,83.56
2023-02-02T22:25:52.746Z,83.80
2023-02-02T22:29:50.761Z,82.96
2023-02-02T22:33:48.782Z,82.53
2023-02-02T22:37:46.691Z,82.73
2023-02-02T22:41:47.115Z,82.89
2023-02-02T22:45:44.727Z,83.04
2023-02-02T22:49:43.618Z,81.82
2023-02-02T22:53:41.734Z,81.75
2023-02-02T22:57:39.638Z,81.67
2023-02-02T23:01:37.685Z,81.40
2023-02-02T23:05:36.791Z,80.62
2023-02-02T23:09:34.668Z,80.56
2023-02-02T23:13:32.755Z,80.71
2023-02-02T23:17:30.660Z,81.12
2023-02-02T23:21:28.723Z,81.50
2023-02-02T23:25:28.638Z,81.81
2023-02-02T23:29:26.635Z,82.00
2023-02-02T23:33:24.644Z,82.24
2023-02-02T23:37:22.734Z,82.36
2023-02-02T23:41:20.665Z,82.52
2023-02-02T23:45:18.624Z,82.60
2023-02-02T23:49:16.589Z,82.60
2023-02-02T23:53:14.664Z,82.72
2023-02-02T23:57:13.613Z,82.84
